Cisco, Georgia
Current Conditions -  °F | °C
As of 9:35 PM on Sunday 23 Nov 2014 (Local Time) from KDNN Reporting Station
Overcast Overcast  
Wind Chill: 59°   Ceiling: 2000
Heat Index: 59°   Visibility: 10mi
Dew Point: 59°   Wind: 6mph
Humidity: 100%   Direction: 190°S
Pressure: 29.67"   Gusts: NA
Location:  34.95°N, 84.74°W
Report Text: KDNN 240235Z AUTO 19005KT 10SM BKN020 BKN026 OVC031 15/15 A2967 RMK AO2
Loading
Personal Weather Stations






























Interactive Weather Map New forecast layout! Learn more

10-Day Weather Forecast

Advertisements
Track Severe Weather on mobile